Pine Bluff, AR

12:59 PM CDT on August 27, 2014 (GMT -0500)
Pine Bluff - Deerfield | Change Station
CLOSE
Current Station
Personal Weather Station
Location: Pine Bluff, AR
Elevation: 228 ft
Nearby Weather Stations
Active Advisory: Special Statement

Elev 228 ft 34.15 °N, 92.01 °W | Updated 13 seconds ago

Partly Cloudy
Partly Cloudy
87.8 °F
Feels Like 98 °F
N
0.0
Wind Variable Wind from South
Gusts 5.0 mph

Today
High -- | Low -- °F
--% Chance of Precip.
Yesterday
High -- | Low -- °F
Precip. -- in
6:37 AM 7:40 PM
Waxing Crescent, 4% visible
Pressure 30.06 in
Visibility 10.0 miles
Clouds Few 7000 ft
Heat Index 98 °F
Dew Point 75 °F
Humidity 66%
Rainfall 0.00 in
Snow Depth Not available.
UV 10 out of 12
Pollen 10.00 out of 12
Air Quality Not available.
Flu Activity Not available.
METAR KPBF 271753Z AUTO 06006KT 10SM FEW070 31/22 A3007 RMK AO2 SLP180 T03110217 10317 20217 58008

More Conditions Fewer Conditions

Pressure 30.06 in
Visibility 10.0 miles
Clouds Few 7000 ft
Heat Index 98 °F
Dew Point 75 °F
Humidity 66%
Rainfall 0.00 in
Snow Depth Not available.
UV 10 out of 12
Pollen 10.00 out of 12
Air Quality Not available.
Flu Activity Not available.
METAR KPBF 271753Z AUTO 06006KT 10SM FEW070 31/22 A3007 RMK AO2 SLP180 T03110217 10317 20217 58008

More Conditions Fewer Conditions

10-Day Weather Forecast

Almanac

Astronomy

Aug. 27, 2014 Rise Set
Actual Time 6:37 AM CDT 7:40 PM CDT
Civil Twilight 6:11 AM CDT 8:05 PM CDT
Nautical Twilight 5:41 AM CDT 8:36 PM CDT
Astronomical Twilight 5:09 AM CDT 9:08 PM CDT
Moon 8:27 AM CDT 8:40 PM CDT
Length of Visible Light 13h 54m
Length of Day
13h 02m
Tomorrow will be 2m 0s shorter.
Waxing Crescent, 4% of the Moon is Illuminated
Today
Waxing Crescent
Sep 2
First Quarter
Sep 8
Full
Sep 15
Last Quarter
Sep 24
New

Today's Extremes

State Highs State Lows

Community

WunderPhotos

Upload Photos

1,747,736 photos uploaded!

Nearby

Snow Depth

Station Depth Elevation
No new snow has been reported.

Earthquake Activity

City Distance Mag. Time & Date
No recent earthquake activity has been reported nearby.
Minimum magnitude displayed is 2.5.

Coastal Water Temperatures

Place Temperature
No Stations Reporting

Nearby Weather Stations